Terminal Aerodrome Forecast
Issued by NWS Cleveland, OH

Home | Current Version | Previous Version | Graphics & Text | Print | Product List | Glossary On
Versions: 1 2 3 4 5 6 7 8 9 10 11 12 13 14 15 16 17 18 19
000
FTUS41 KCLE 241100 AAA
TAFYNG
TAF AMD
KYNG 241126Z 2411/2506 13010KT P6SM OVC005
      TEMPO 2412/2416 4SM -DZ BR
     FM241600 16010KT P6SM OVC008
     FM241900 18012G22KT P6SM OVC012
     FM250000 19018G28KT 4SM -SHRA OVC010
     FM250300 20025G40KT P6SM OVC015=

USA.gov is the U.S. government's official web portal to all federal, state and local government web resources and services.